createdAt,value
2018-09-07T00:02:03.132Z,20.90
2018-09-07T00:04:31.165Z,20.80
2018-09-07T00:11:53.743Z,20.70
2018-09-07T00:14:21.217Z,20.60
2018-09-07T00:16:49.519Z,20.50
2018-09-07T00:19:17.041Z,20.50
2018-09-07T00:21:45.104Z,20.70
2018-09-07T00:24:12.730Z,20.70
2018-09-07T00:26:40.260Z,20.70
2018-09-07T00:29:08.292Z,20.70
2018-09-07T00:31:35.733Z,20.70
2018-09-07T00:34:03.257Z,20.40
2018-09-07T00:36:31.046Z,20.40
2018-09-07T00:38:58.611Z,20.30
2018-09-07T00:41:27.092Z,20.50
2018-09-07T00:43:54.714Z,20.40
2018-09-07T00:46:22.844Z,20.20
2018-09-07T00:48:50.416Z,20.70
2018-09-07T00:51:17.931Z,20.90
2018-09-07T00:56:12.800Z,20.80
2018-09-07T00:58:40.297Z,20.60
2018-09-07T01:03:35.152Z,20.40
2018-09-07T01:06:02.684Z,20.30
2018-09-07T01:08:30.216Z,20.40
2018-09-07T01:10:57.674Z,20.40
2018-09-07T01:13:25.183Z,20.60
2018-09-07T01:15:52.762Z,20.60
2018-09-07T01:18:21.517Z,20.50
2018-09-07T01:20:49.250Z,20.50
2018-09-07T01:23:16.796Z,20.70
2018-09-07T01:25:44.373Z,20.80
2018-09-07T01:28:13.152Z,20.70
2018-09-07T01:30:42.937Z,20.70
2018-09-07T01:33:10.625Z,20.50
2018-09-07T01:35:38.822Z,20.50
2018-09-07T01:38:11.949Z,20.50
2018-09-07T01:40:39.640Z,20.40
2018-09-07T01:43:07.259Z,20.50
2018-09-07T01:45:34.834Z,20.60
2018-09-07T01:48:03.533Z,20.50
2018-09-07T01:50:31.055Z,20.40
2018-09-07T01:52:58.511Z,20.40
2018-09-07T01:55:26.016Z,20.40
2018-09-07T01:57:54.074Z,20.30
2018-09-07T02:02:54.849Z,20.30
2018-09-07T02:05:22.475Z,20.30
2018-09-07T02:07:49.959Z,20.10
2018-09-07T02:10:17.504Z,20.10
2018-09-07T02:12:45.014Z,20.10
2018-09-07T02:15:12.563Z,20.10
2018-09-07T02:17:40.248Z,20.20
2018-09-07T02:20:08.347Z,20.30
2018-09-07T02:22:35.863Z,20.40
2018-09-07T02:25:03.703Z,20.30
2018-09-07T02:27:31.212Z,20.30
2018-09-07T02:29:59.468Z,20.20
2018-09-07T02:32:27.322Z,20.20
2018-09-07T02:34:55.395Z,20.30
2018-09-07T02:37:22.880Z,20.30
2018-09-07T02:39:50.609Z,20.20
2018-09-07T02:42:18.136Z,20.10
2018-09-07T02:44:45.738Z,20.20
2018-09-07T02:47:14.131Z,20.40
2018-09-07T02:49:41.671Z,20.40
2018-09-07T02:52:09.160Z,20.40
2018-09-07T02:54:36.629Z,20.30
2018-09-07T02:57:04.964Z,20.30
2018-09-07T02:59:33.401Z,20.30
2018-09-07T03:02:01.036Z,20.50
2018-09-07T03:04:28.552Z,20.50
2018-09-07T03:06:56.005Z,20.50
2018-09-07T03:09:23.631Z,20.60
2018-09-07T03:11:51.724Z,20.60
2018-09-07T03:14:19.211Z,20.60
2018-09-07T03:16:46.721Z,20.50
2018-09-07T03:21:42.214Z,20.50
2018-09-07T03:26:37.213Z,20.40
2018-09-07T03:29:05.744Z,20.30
2018-09-07T03:31:33.305Z,20.50
2018-09-07T03:34:01.063Z,20.50
2018-09-07T03:36:28.707Z,20.40
2018-09-07T03:38:56.252Z,20.30
2018-09-07T03:41:23.723Z,20.00
2018-09-07T03:43:51.276Z,19.90
2018-09-07T03:46:18.814Z,19.90
2018-09-07T03:48:46.339Z,19.80
2018-09-07T03:51:13.941Z,19.90
2018-09-07T03:53:41.491Z,19.90
2018-09-07T03:56:08.988Z,20.00
2018-09-07T03:58:36.545Z,20.00
2018-09-07T04:01:04.152Z,20.20
2018-09-07T04:03:31.635Z,20.10
2018-09-07T04:05:59.179Z,20.10
2018-09-07T04:08:26.700Z,20.00
2018-09-07T04:10:54.195Z,20.10
2018-09-07T04:13:21.631Z,20.10
2018-09-07T04:15:49.088Z,20.00
2018-09-07T04:18:16.615Z,20.10
2018-09-07T04:20:44.108Z,20.10
2018-09-07T04:23:11.734Z,20.10
2018-09-07T04:25:39.196Z,20.20
2018-09-07T04:28:07.140Z,20.10
2018-09-07T04:30:35.044Z,20.10
2018-09-07T04:33:02.616Z,20.20
2018-09-07T04:35:30.061Z,20.20
2018-09-07T04:37:57.570Z,20.20
2018-09-07T04:40:25.711Z,20.20
2018-09-07T04:42:53.311Z,20.20
2018-09-07T04:45:20.763Z,20.00
2018-09-07T04:47:48.257Z,19.80
2018-09-07T04:50:15.791Z,19.90
2018-09-07T04:52:43.342Z,19.90
2018-09-07T04:55:11.053Z,19.90
2018-09-07T04:57:38.650Z,19.90
2018-09-07T05:00:06.302Z,19.80
2018-09-07T05:02:34.928Z,19.80
2018-09-07T05:05:02.593Z,19.80
2018-09-07T05:07:30.078Z,19.70
2018-09-07T05:09:57.699Z,19.60
2018-09-07T05:12:26.165Z,19.60
2018-09-07T05:14:54.339Z,19.60
2018-09-07T05:17:21.960Z,19.60
2018-09-07T05:19:49.609Z,19.50
2018-09-07T05:22:17.174Z,19.70
2018-09-07T05:24:45.541Z,19.70
2018-09-07T05:27:13.240Z,19.90
2018-09-07T05:29:40.899Z,19.90
2018-09-07T05:32:09.231Z,19.80
2018-09-07T05:34:36.792Z,19.60
2018-09-07T05:37:04.372Z,19.60
2018-09-07T05:39:32.671Z,19.60
2018-09-07T05:42:00.214Z,19.60
2018-09-07T05:44:27.716Z,19.70
2018-09-07T05:46:55.203Z,19.60
2018-09-07T05:49:22.728Z,19.50
2018-09-07T05:51:50.875Z,19.50
2018-09-07T05:54:18.372Z,19.60
2018-09-07T05:56:46.106Z,19.60
2018-09-07T05:59:13.574Z,19.50
2018-09-07T06:01:41.739Z,19.70
2018-09-07T06:04:09.222Z,19.70
2018-09-07T06:06:36.950Z,19.70
2018-09-07T06:09:07.480Z,19.60
2018-09-07T06:11:35.020Z,19.90
2018-09-07T06:14:02.586Z,19.70
2018-09-07T06:16:30.109Z,19.70
2018-09-07T06:18:57.594Z,19.60
2018-09-07T06:21:25.297Z,19.60
2018-09-07T06:23:52.941Z,19.50
2018-09-07T06:26:21.986Z,19.60
2018-09-07T06:28:49.480Z,19.60
2018-09-07T06:31:16.986Z,19.70
2018-09-07T06:33:44.501Z,19.60
2018-09-07T06:36:12.222Z,19.70
2018-09-07T06:38:39.903Z,19.70
2018-09-07T06:41:07.752Z,19.80
2018-09-07T06:43:35.670Z,19.80
2018-09-07T06:46:03.352Z,20.00
2018-09-07T06:48:30.877Z,19.90
2018-09-07T06:50:58.434Z,20.00
2018-09-07T06:53:26.041Z,20.00
2018-09-07T06:55:53.512Z,19.90
2018-09-07T06:58:21.290Z,19.90
2018-09-07T07:00:48.765Z,20.00
2018-09-07T07:03:23.378Z,20.00
2018-09-07T07:05:51.686Z,20.10
2018-09-07T07:08:20.410Z,20.10
2018-09-07T07:10:47.919Z,20.00
2018-09-07T07:13:15.478Z,20.10
2018-09-07T07:15:43.074Z,20.20
2018-09-07T07:18:10.589Z,20.30
2018-09-07T07:20:38.076Z,20.50
2018-09-07T07:23:05.608Z,20.90
2018-09-07T07:25:33.121Z,21.10
2018-09-07T07:30:28.119Z,21.30
2018-09-07T07:32:55.644Z,21.40
2018-09-07T07:35:23.196Z,21.40
2018-09-07T07:37:50.895Z,21.40
2018-09-07T07:40:18.390Z,20.80
2018-09-07T07:42:45.899Z,21.90
2018-09-07T07:45:13.454Z,21.90
2018-09-07T07:47:41.003Z,21.80
2018-09-07T07:50:08.867Z,21.70
2018-09-07T07:52:36.327Z,21.50
2018-09-07T07:55:04.616Z,21.20
2018-09-07T07:57:32.077Z,21.10
2018-09-07T07:59:59.600Z,21.20
2018-09-07T08:02:27.163Z,21.20
2018-09-07T08:04:54.837Z,21.30
2018-09-07T08:07:22.347Z,21.30
2018-09-07T08:09:49.808Z,21.50
2018-09-07T08:12:17.302Z,21.50
2018-09-07T08:14:44.911Z,21.60
2018-09-07T08:17:12.402Z,21.70
2018-09-07T08:19:39.897Z,21.70
2018-09-07T08:22:07.993Z,21.50
2018-09-07T08:24:35.561Z,21.30
2018-09-07T08:27:03.101Z,21.30
2018-09-07T08:29:30.648Z,21.70
2018-09-07T08:31:58.781Z,22.40
2018-09-07T08:34:26.361Z,22.50
2018-09-07T08:36:53.959Z,23.30
2018-09-07T08:39:21.548Z,23.30
2018-09-07T08:41:49.255Z,24.00
2018-09-07T08:44:16.880Z,24.20
2018-09-07T08:46:44.522Z,24.50
2018-09-07T08:49:12.109Z,25.10
2018-09-07T08:51:39.712Z,25.30
2018-09-07T08:54:07.254Z,25.20
2018-09-07T08:56:34.810Z,25.50
2018-09-07T08:59:02.720Z,25.40
2018-09-07T09:01:30.952Z,25.60
2018-09-07T09:03:59.211Z,26.00
2018-09-07T09:06:26.801Z,26.40
2018-09-07T09:08:54.298Z,26.30
2018-09-07T09:11:21.865Z,26.80
2018-09-07T09:13:49.478Z,24.30
2018-09-07T09:16:17.111Z,27.10
2018-09-07T09:18:44.692Z,27.10
2018-09-07T09:21:12.205Z,27.00
2018-09-07T09:23:40.074Z,27.30
2018-09-07T09:26:07.500Z,27.50
2018-09-07T09:28:35.057Z,27.50
2018-09-07T09:31:03.174Z,27.20
2018-09-07T09:33:30.657Z,27.20
2018-09-07T09:35:58.360Z,26.70
2018-09-07T09:38:25.879Z,26.60
2018-09-07T09:40:53.337Z,26.40
2018-09-07T09:43:20.903Z,26.60
2018-09-07T09:45:48.445Z,27.10
2018-09-07T09:48:16.005Z,27.20
2018-09-07T09:50:43.453Z,27.80
2018-09-07T09:53:10.997Z,27.90
2018-09-07T09:55:38.491Z,27.70
2018-09-07T09:58:06.043Z,27.80
2018-09-07T10:00:39.260Z,27.80
2018-09-07T10:03:08.728Z,27.50
2018-09-07T10:05:36.435Z,27.50
2018-09-07T10:08:03.887Z,27.20
2018-09-07T10:10:31.719Z,26.40
2018-09-07T10:12:59.230Z,26.40
2018-09-07T10:15:26.680Z,26.80
2018-09-07T10:17:54.864Z,27.10
2018-09-07T10:20:22.505Z,27.20
2018-09-07T10:22:49.988Z,27.40
2018-09-07T10:25:17.745Z,27.70
2018-09-07T10:27:45.271Z,27.90
2018-09-07T10:30:12.828Z,28.10
2018-09-07T10:32:40.391Z,28.10
2018-09-07T10:35:07.931Z,28.20
2018-09-07T10:40:04.436Z,27.00
2018-09-07T10:42:31.916Z,26.40
2018-09-07T10:44:59.386Z,26.00
2018-09-07T10:47:26.953Z,25.30
2018-09-07T10:49:54.432Z,25.10
2018-09-07T10:52:21.904Z,25.10
2018-09-07T10:54:49.910Z,24.60
2018-09-07T10:57:18.083Z,24.50
2018-09-07T10:59:45.714Z,24.60
2018-09-07T11:02:13.239Z,24.70
2018-09-07T11:04:40.819Z,24.80
2018-09-07T11:07:08.372Z,25.00
2018-09-07T11:09:35.953Z,25.30
2018-09-07T11:12:03.539Z,25.50
2018-09-07T11:14:31.116Z,25.50
2018-09-07T11:16:58.551Z,25.30
2018-09-07T11:19:26.113Z,25.70
2018-09-07T11:21:53.586Z,25.50
2018-09-07T11:24:21.099Z,25.30
2018-09-07T11:26:48.582Z,25.00
2018-09-07T11:29:16.051Z,25.80
2018-09-07T11:31:43.536Z,25.90
2018-09-07T11:34:11.164Z,26.40
2018-09-07T11:36:38.796Z,26.20
2018-09-07T11:39:08.141Z,26.70
2018-09-07T11:44:03.131Z,27.60
2018-09-07T11:46:30.752Z,27.90
2018-09-07T11:48:58.845Z,27.30
2018-09-07T11:56:22.301Z,25.70
2018-09-07T12:01:17.304Z,25.40
2018-09-07T12:08:39.729Z,25.50
2018-09-07T12:13:34.810Z,26.10
2018-09-07T12:16:02.227Z,25.80
2018-09-07T12:18:29.870Z,25.50
2018-09-07T12:25:52.955Z,25.40
2018-09-07T12:30:48.167Z,24.90
2018-09-07T12:33:15.784Z,23.80
2018-09-07T12:35:45.965Z,24.20
2018-09-07T12:38:13.489Z,24.10
2018-09-07T12:40:41.279Z,23.40
2018-09-07T12:43:11.372Z,23.70
2018-09-07T12:48:06.675Z,23.90
2018-09-07T13:00:24.404Z,22.90
2018-09-07T13:05:19.549Z,23.80
2018-09-07T13:07:47.123Z,23.30
2018-09-07T13:10:14.712Z,23.30
2018-09-07T13:12:42.221Z,23.90
2018-09-07T13:17:37.132Z,23.90
2018-09-07T13:32:22.739Z,23.60
2018-09-07T13:37:17.651Z,23.90
2018-09-07T13:42:12.603Z,23.50
2018-09-07T13:49:35.762Z,24.10
2018-09-07T13:54:37.981Z,23.60
2018-09-07T13:57:05.577Z,23.90
2018-09-07T13:59:33.039Z,23.70
2018-09-07T14:02:00.682Z,22.80
2018-09-07T14:04:28.156Z,23.70
2018-09-07T14:11:50.697Z,23.60
2018-09-07T14:14:18.234Z,23.90
2018-09-07T14:16:45.766Z,24.50
2018-09-07T14:19:13.246Z,24.00
2018-09-07T14:21:41.016Z,24.20
2018-09-07T14:24:08.603Z,23.50
2018-09-07T14:26:36.107Z,24.60
2018-09-07T14:29:03.693Z,24.60
2018-09-07T14:31:31.211Z,24.60
2018-09-07T14:33:58.758Z,24.20
2018-09-07T14:36:26.357Z,24.50
2018-09-07T14:41:22.003Z,24.20
2018-09-07T14:46:17.076Z,23.90
2018-09-07T14:53:39.473Z,23.70
2018-09-07T15:05:57.096Z,24.00
2018-09-07T15:15:47.431Z,22.50
2018-09-07T15:18:14.917Z,22.90
2018-09-07T15:23:09.923Z,22.90
2018-09-07T15:28:05.853Z,22.80
2018-09-07T15:40:23.286Z,22.70
2018-09-07T15:42:52.109Z,22.80
2018-09-07T15:45:19.745Z,21.90
2018-09-07T15:57:37.059Z,21.70
2018-09-07T16:02:33.028Z,22.00
2018-09-07T16:07:28.370Z,22.10
2018-09-07T16:09:55.897Z,21.90
2018-09-07T16:14:52.204Z,21.70
2018-09-07T16:17:25.652Z,21.50
2018-09-07T16:24:49.335Z,21.50
2018-09-07T16:29:44.239Z,22.20
2018-09-07T16:32:11.855Z,21.80
2018-09-07T16:34:39.359Z,21.90
2018-09-07T16:37:06.923Z,21.90
2018-09-07T16:39:34.471Z,21.90
2018-09-07T16:42:01.993Z,22.20
2018-09-07T16:44:29.608Z,21.90
2018-09-07T16:46:57.221Z,21.80
2018-09-07T16:51:52.428Z,22.40
2018-09-07T16:59:14.824Z,21.30
2018-09-07T17:04:10.096Z,21.70
2018-09-07T17:09:06.044Z,22.00
2018-09-07T17:11:33.557Z,21.60
2018-09-07T17:16:28.596Z,21.50
2018-09-07T17:18:56.118Z,21.50
2018-09-07T17:23:51.115Z,21.50
2018-09-07T17:26:18.660Z,21.20
2018-09-07T17:28:46.240Z,21.50
2018-09-07T17:36:08.700Z,21.20
2018-09-07T17:38:36.212Z,21.30
2018-09-07T17:41:03.730Z,21.20
2018-09-07T17:43:31.244Z,21.20
2018-09-07T17:45:58.815Z,21.10
2018-09-07T17:48:26.316Z,21.10
2018-09-07T17:55:48.709Z,21.10
2018-09-07T17:58:16.176Z,21.10
2018-09-07T18:00:43.690Z,21.10
2018-09-07T18:03:11.242Z,21.00
2018-09-07T18:08:06.779Z,20.90
2018-09-07T18:10:34.331Z,21.00
2018-09-07T18:15:29.351Z,20.90
2018-09-07T18:20:24.543Z,20.80
2018-09-07T18:22:52.033Z,20.80
2018-09-07T18:25:19.557Z,20.70
2018-09-07T18:27:47.350Z,20.70
2018-09-07T18:30:14.944Z,20.70
2018-09-07T18:32:42.428Z,20.60
2018-09-07T18:35:10.074Z,20.70
2018-09-07T18:37:37.675Z,19.90
2018-09-07T18:40:05.223Z,20.50
2018-09-07T18:42:32.857Z,20.80
2018-09-07T18:49:55.250Z,20.50
2018-09-07T18:52:22.798Z,20.50
2018-09-07T18:59:45.445Z,20.40
2018-09-07T19:02:13.076Z,20.50
2018-09-07T19:04:40.631Z,20.60
2018-09-07T19:07:08.113Z,20.20
2018-09-07T19:12:03.092Z,20.50
2018-09-07T19:14:30.713Z,20.70
2018-09-07T19:19:25.793Z,20.40
2018-09-07T19:21:53.341Z,20.70
2018-09-07T19:24:20.897Z,20.60
2018-09-07T19:26:48.404Z,20.30
2018-09-07T19:29:15.992Z,20.40
2018-09-07T19:34:10.924Z,20.00
2018-09-07T19:36:38.488Z,20.80
2018-09-07T19:39:06.474Z,20.90
2018-09-07T19:41:33.965Z,20.20
2018-09-07T19:44:01.511Z,20.30
2018-09-07T19:46:29.148Z,20.10
2018-09-07T19:48:56.714Z,19.90
2018-09-07T19:51:24.244Z,20.10
2018-09-07T19:53:51.754Z,20.20
2018-09-07T19:56:19.311Z,20.10
2018-09-07T19:58:46.858Z,19.50
2018-09-07T20:01:14.410Z,19.60
2018-09-07T20:03:41.984Z,19.40
2018-09-07T20:08:36.992Z,19.50
2018-09-07T20:13:32.132Z,19.20
2018-09-07T20:15:59.686Z,19.10
2018-09-07T20:20:54.688Z,18.90
2018-09-07T20:23:22.223Z,18.80
2018-09-07T20:25:49.817Z,18.80
2018-09-07T20:28:17.312Z,18.90
2018-09-07T20:30:44.895Z,19.00
2018-09-07T20:33:12.465Z,18.90
2018-09-07T20:35:39.996Z,18.80
2018-09-07T20:38:07.525Z,18.70
2018-09-07T20:40:35.041Z,18.70
2018-09-07T20:43:02.570Z,18.70
2018-09-07T20:45:30.147Z,18.70
2018-09-07T20:47:57.722Z,18.60
2018-09-07T20:50:25.310Z,18.50
2018-09-07T20:52:53.122Z,18.50
2018-09-07T20:55:20.632Z,18.40
2018-09-07T21:00:18.170Z,18.50
2018-09-07T21:02:45.713Z,18.40
2018-09-07T21:05:13.231Z,18.40
2018-09-07T21:07:40.801Z,18.40
2018-09-07T21:10:08.426Z,18.40
2018-09-07T21:12:40.299Z,18.30
2018-09-07T21:15:08.050Z,18.30
2018-09-07T21:17:35.545Z,18.40
2018-09-07T21:20:03.281Z,18.50
2018-09-07T21:24:58.287Z,18.60
2018-09-07T21:29:53.215Z,18.70
2018-09-07T21:32:20.730Z,18.70
2018-09-07T21:34:48.297Z,18.60
2018-09-07T21:37:15.899Z,18.40
2018-09-07T21:39:43.791Z,18.40
2018-09-07T21:42:11.256Z,18.50
2018-09-07T21:44:38.808Z,18.50
2018-09-07T21:49:34.396Z,18.40
2018-09-07T21:52:02.011Z,18.40
2018-09-07T21:54:29.534Z,18.40
2018-09-07T21:56:59.134Z,18.60
2018-09-07T21:59:26.863Z,18.70
2018-09-07T22:01:54.410Z,18.60
2018-09-07T22:04:21.925Z,18.60
2018-09-07T22:06:55.684Z,18.60
2018-09-07T22:09:23.471Z,18.50
2018-09-07T22:11:51.037Z,18.50
2018-09-07T22:14:18.516Z,18.40
2018-09-07T22:16:46.052Z,18.30
2018-09-07T22:19:13.623Z,18.30
2018-09-07T22:21:41.072Z,18.20
2018-09-07T22:24:08.584Z,18.20
2018-09-07T22:26:37.103Z,17.90
2018-09-07T22:29:04.638Z,18.00
2018-09-07T22:31:32.287Z,17.90
2018-09-07T22:33:59.792Z,17.80
2018-09-07T22:38:54.812Z,17.80
2018-09-07T22:41:22.266Z,17.80
2018-09-07T22:43:49.740Z,17.70
2018-09-07T22:46:17.521Z,17.50
2018-09-07T22:48:45.728Z,17.60
2018-09-07T22:51:13.181Z,17.50
2018-09-07T22:53:40.625Z,17.50
2018-09-07T22:56:08.152Z,17.50
2018-09-07T22:58:35.676Z,17.60
2018-09-07T23:01:03.271Z,17.50
2018-09-07T23:03:30.885Z,17.50
2018-09-07T23:05:58.420Z,17.40
2018-09-07T23:08:26.612Z,17.40
2018-09-07T23:10:55.231Z,17.40
2018-09-07T23:13:22.805Z,17.40
2018-09-07T23:15:50.625Z,17.30
2018-09-07T23:18:18.089Z,17.30
2018-09-07T23:20:45.654Z,17.30
2018-09-07T23:23:13.243Z,17.20
2018-09-07T23:25:40.756Z,17.20
2018-09-07T23:28:08.304Z,17.20
2018-09-07T23:30:35.770Z,17.20
2018-09-07T23:33:03.279Z,17.20
2018-09-07T23:35:30.773Z,17.10
2018-09-07T23:37:58.442Z,17.10
2018-09-07T23:42:53.796Z,17.20
2018-09-07T23:45:21.358Z,17.40
2018-09-07T23:50:16.264Z,16.90
2018-09-07T23:52:43.755Z,17.50
2018-09-07T23:55:11.355Z,17.30
2018-09-07T23:57:38.868Z,17.30
